sensor_id;sensor_type;location;lat;lon;timestamp;temperature;humidity
42019;DHT22;27703;51.980;5.848;2023-07-24T00:00:23;18.70;99.90
42019;DHT22;27703;51.980;5.848;2023-07-24T00:02:49;18.70;99.90
42019;DHT22;27703;51.980;5.848;2023-07-24T00:05:14;18.80;99.90
42019;DHT22;27703;51.980;5.848;2023-07-24T00:07:40;18.80;99.90
42019;DHT22;27703;51.980;5.848;2023-07-24T00:10:06;18.80;99.90
42019;DHT22;27703;51.980;5.848;2023-07-24T00:12:32;18.80;99.90
42019;DHT22;27703;51.980;5.848;2023-07-24T00:14:58;18.80;99.90
42019;DHT22;27703;51.980;5.848;2023-07-24T00:17:24;18.80;99.90
42019;DHT22;27703;51.980;5.848;2023-07-24T00:19:50;18.80;99.90
42019;DHT22;27703;51.980;5.848;2023-07-24T00:22:15;18.80;99.90
42019;DHT22;27703;51.980;5.848;2023-07-24T00:24:41;18.80;99.90
42019;DHT22;27703;51.980;5.848;2023-07-24T00:27:06;18.70;99.90
42019;DHT22;27703;51.980;5.848;2023-07-24T00:29:32;18.70;99.90
42019;DHT22;27703;51.980;5.848;2023-07-24T00:31:58;18.70;99.90
42019;DHT22;27703;51.980;5.848;2023-07-24T00:34:23;18.70;99.90
42019;DHT22;27703;51.980;5.848;2023-07-24T00:36:49;18.70;99.90
42019;DHT22;27703;51.980;5.848;2023-07-24T00:39:15;18.70;99.90
42019;DHT22;27703;51.980;5.848;2023-07-24T00:41:41;18.60;99.90
42019;DHT22;27703;51.980;5.848;2023-07-24T00:44:06;18.70;99.90
42019;DHT22;27703;51.980;5.848;2023-07-24T00:46:33;18.60;99.90
42019;DHT22;27703;51.980;5.848;2023-07-24T00:49:01;18.60;99.90
42019;DHT22;27703;51.980;5.848;2023-07-24T00:51:27;18.60;99.90
42019;DHT22;27703;51.980;5.848;2023-07-24T00:53:55;18.60;99.90
42019;DHT22;27703;51.980;5.848;2023-07-24T00:56:22;18.60;99.90
42019;DHT22;27703;51.980;5.848;2023-07-24T00:58:48;18.60;99.90
42019;DHT22;27703;51.980;5.848;2023-07-24T01:01:15;18.60;99.90
42019;DHT22;27703;51.980;5.848;2023-07-24T01:03:41;18.60;99.90
42019;DHT22;27703;51.980;5.848;2023-07-24T01:06:09;18.60;99.90
42019;DHT22;27703;51.980;5.848;2023-07-24T01:08:35;18.50;99.90
42019;DHT22;27703;51.980;5.848;2023-07-24T01:11:12;18.50;99.90
42019;DHT22;27703;51.980;5.848;2023-07-24T01:13:43;18.50;99.90
42019;DHT22;27703;51.980;5.848;2023-07-24T01:16:13;18.50;99.90
42019;DHT22;27703;51.980;5.848;2023-07-24T01:18:39;18.50;99.90
42019;DHT22;27703;51.980;5.848;2023-07-24T01:21:08;18.50;99.90
42019;DHT22;27703;51.980;5.848;2023-07-24T01:23:58;18.60;99.90
42019;DHT22;27703;51.980;5.848;2023-07-24T01:26:25;18.50;99.90
42019;DHT22;27703;51.980;5.848;2023-07-24T01:28:51;18.50;99.90
42019;DHT22;27703;51.980;5.848;2023-07-24T01:31:16;18.50;99.90
42019;DHT22;27703;51.980;5.848;2023-07-24T01:33:43;18.50;99.90
42019;DHT22;27703;51.980;5.848;2023-07-24T01:36:09;18.50;99.90
42019;DHT22;27703;51.980;5.848;2023-07-24T01:38:36;18.50;99.90
42019;DHT22;27703;51.980;5.848;2023-07-24T01:41:05;18.50;99.90
42019;DHT22;27703;51.980;5.848;2023-07-24T01:43:31;18.60;99.90
42019;DHT22;27703;51.980;5.848;2023-07-24T01:45:57;18.50;99.90
42019;DHT22;27703;51.980;5.848;2023-07-24T01:48:23;18.50;99.90
42019;DHT22;27703;51.980;5.848;2023-07-24T01:50:49;18.50;99.90
42019;DHT22;27703;51.980;5.848;2023-07-24T01:53:15;18.50;99.90
42019;DHT22;27703;51.980;5.848;2023-07-24T01:55:41;18.50;99.90
42019;DHT22;27703;51.980;5.848;2023-07-24T01:58:07;18.50;99.90
42019;DHT22;27703;51.980;5.848;2023-07-24T02:00:32;18.50;99.90
42019;DHT22;27703;51.980;5.848;2023-07-24T02:02:58;18.50;99.90
42019;DHT22;27703;51.980;5.848;2023-07-24T02:05:23;18.50;99.90
42019;DHT22;27703;51.980;5.848;2023-07-24T02:07:49;18.50;99.90
42019;DHT22;27703;51.980;5.848;2023-07-24T02:10:14;18.50;99.90
42019;DHT22;27703;51.980;5.848;2023-07-24T02:12:40;18.40;99.90
42019;DHT22;27703;51.980;5.848;2023-07-24T02:15:06;18.50;99.90
42019;DHT22;27703;51.980;5.848;2023-07-24T02:17:32;18.50;99.90
42019;DHT22;27703;51.980;5.848;2023-07-24T02:19:58;18.50;99.90
42019;DHT22;27703;51.980;5.848;2023-07-24T02:22:24;18.50;99.90
42019;DHT22;27703;51.980;5.848;2023-07-24T02:24:49;18.50;99.90
42019;DHT22;27703;51.980;5.848;2023-07-24T02:27:29;18.50;99.90
42019;DHT22;27703;51.980;5.848;2023-07-24T02:29:56;18.50;99.90
42019;DHT22;27703;51.980;5.848;2023-07-24T02:32:22;18.50;99.90
42019;DHT22;27703;51.980;5.848;2023-07-24T02:34:51;18.50;99.90
42019;DHT22;27703;51.980;5.848;2023-07-24T02:37:17;18.60;99.90
42019;DHT22;27703;51.980;5.848;2023-07-24T02:39:42;18.60;99.90
42019;DHT22;27703;51.980;5.848;2023-07-24T02:42:08;18.50;99.90
42019;DHT22;27703;51.980;5.848;2023-07-24T02:44:34;18.60;99.90
42019;DHT22;27703;51.980;5.848;2023-07-24T02:47:00;18.60;99.90
42019;DHT22;27703;51.980;5.848;2023-07-24T02:49:25;18.60;99.90
42019;DHT22;27703;51.980;5.848;2023-07-24T02:51:51;18.60;99.90
42019;DHT22;27703;51.980;5.848;2023-07-24T02:54:16;18.50;99.90
42019;DHT22;27703;51.980;5.848;2023-07-24T02:56:42;18.60;99.90
42019;DHT22;27703;51.980;5.848;2023-07-24T02:59:07;18.60;99.90
42019;DHT22;27703;51.980;5.848;2023-07-24T03:01:33;18.60;99.90
42019;DHT22;27703;51.980;5.848;2023-07-24T03:03:59;18.60;99.90
42019;DHT22;27703;51.980;5.848;2023-07-24T03:06:25;18.60;99.90
42019;DHT22;27703;51.980;5.848;2023-07-24T03:08:51;18.50;99.90
42019;DHT22;27703;51.980;5.848;2023-07-24T03:11:16;18.50;99.90
42019;DHT22;27703;51.980;5.848;2023-07-24T03:13:42;18.50;99.90
42019;DHT22;27703;51.980;5.848;2023-07-24T03:16:08;18.50;99.90
42019;DHT22;27703;51.980;5.848;2023-07-24T03:18:34;18.50;99.90
42019;DHT22;27703;51.980;5.848;2023-07-24T03:20:59;18.50;99.90
42019;DHT22;27703;51.980;5.848;2023-07-24T03:23:25;18.50;99.90
42019;DHT22;27703;51.980;5.848;2023-07-24T03:25:51;18.50;99.90
42019;DHT22;27703;51.980;5.848;2023-07-24T03:28:17;18.50;99.90
42019;DHT22;27703;51.980;5.848;2023-07-24T03:30:42;18.50;99.90
42019;DHT22;27703;51.980;5.848;2023-07-24T03:33:08;18.50;99.90
42019;DHT22;27703;51.980;5.848;2023-07-24T03:35:34;18.50;99.90
42019;DHT22;27703;51.980;5.848;2023-07-24T03:37:59;18.50;99.90
42019;DHT22;27703;51.980;5.848;2023-07-24T03:40:25;18.50;99.90
42019;DHT22;27703;51.980;5.848;2023-07-24T03:42:51;18.50;99.90
42019;DHT22;27703;51.980;5.848;2023-07-24T03:45:16;18.50;99.90
42019;DHT22;27703;51.980;5.848;2023-07-24T03:47:42;18.50;99.90
42019;DHT22;27703;51.980;5.848;2023-07-24T03:50:08;18.50;99.90
42019;DHT22;27703;51.980;5.848;2023-07-24T03:52:33;18.50;99.90
42019;DHT22;27703;51.980;5.848;2023-07-24T03:54:59;18.40;99.90
42019;DHT22;27703;51.980;5.848;2023-07-24T03:57:25;18.40;99.90
42019;DHT22;27703;51.980;5.848;2023-07-24T03:59:50;18.40;99.90
42019;DHT22;27703;51.980;5.848;2023-07-24T04:02:16;18.40;99.90
42019;DHT22;27703;51.980;5.848;2023-07-24T04:04:41;18.30;99.90
42019;DHT22;27703;51.980;5.848;2023-07-24T04:07:07;18.30;99.90
42019;DHT22;27703;51.980;5.848;2023-07-24T04:09:32;18.20;99.90
42019;DHT22;27703;51.980;5.848;2023-07-24T04:11:58;18.20;99.90
42019;DHT22;27703;51.980;5.848;2023-07-24T04:14:23;18.20;99.90
42019;DHT22;27703;51.980;5.848;2023-07-24T04:16:49;18.10;99.90
42019;DHT22;27703;51.980;5.848;2023-07-24T04:19:15;18.20;99.90
42019;DHT22;27703;51.980;5.848;2023-07-24T04:21:40;18.10;99.90
42019;DHT22;27703;51.980;5.848;2023-07-24T04:24:06;18.10;99.90
42019;DHT22;27703;51.980;5.848;2023-07-24T04:26:31;18.10;99.90
42019;DHT22;27703;51.980;5.848;2023-07-24T04:28:57;18.10;99.90
42019;DHT22;27703;51.980;5.848;2023-07-24T04:31:23;18.10;99.90
42019;DHT22;27703;51.980;5.848;2023-07-24T04:33:48;18.10;99.90
42019;DHT22;27703;51.980;5.848;2023-07-24T04:36:14;18.00;99.90
42019;DHT22;27703;51.980;5.848;2023-07-24T04:38:39;18.00;99.90
42019;DHT22;27703;51.980;5.848;2023-07-24T04:41:05;18.00;99.90
42019;DHT22;27703;51.980;5.848;2023-07-24T04:43:30;18.00;99.90
42019;DHT22;27703;51.980;5.848;2023-07-24T04:45:56;18.00;99.90
42019;DHT22;27703;51.980;5.848;2023-07-24T04:48:22;18.00;99.90
42019;DHT22;27703;51.980;5.848;2023-07-24T04:50:53;18.00;99.90
42019;DHT22;27703;51.980;5.848;2023-07-24T04:53:20;18.00;99.90
42019;DHT22;27703;51.980;5.848;2023-07-24T04:55:47;17.90;99.90
42019;DHT22;27703;51.980;5.848;2023-07-24T04:58:13;17.90;99.90
42019;DHT22;27703;51.980;5.848;2023-07-24T05:00:38;18.00;99.90
42019;DHT22;27703;51.980;5.848;2023-07-24T05:03:04;17.90;99.90
42019;DHT22;27703;51.980;5.848;2023-07-24T05:05:30;17.90;99.90
42019;DHT22;27703;51.980;5.848;2023-07-24T05:07:57;17.90;99.90
42019;DHT22;27703;51.980;5.848;2023-07-24T05:10:22;18.00;99.90
42019;DHT22;27703;51.980;5.848;2023-07-24T05:12:48;17.90;99.90
42019;DHT22;27703;51.980;5.848;2023-07-24T05:15:13;18.00;99.90
42019;DHT22;27703;51.980;5.848;2023-07-24T05:17:42;18.00;99.90
42019;DHT22;27703;51.980;5.848;2023-07-24T05:20:09;18.00;99.90
42019;DHT22;27703;51.980;5.848;2023-07-24T05:22:34;18.00;99.90
42019;DHT22;27703;51.980;5.848;2023-07-24T05:25:00;18.00;99.90
42019;DHT22;27703;51.980;5.848;2023-07-24T05:27:25;18.00;99.90
42019;DHT22;27703;51.980;5.848;2023-07-24T05:29:51;18.00;99.90
42019;DHT22;27703;51.980;5.848;2023-07-24T05:32:17;18.00;99.90
42019;DHT22;27703;51.980;5.848;2023-07-24T05:34:42;18.00;99.90
42019;DHT22;27703;51.980;5.848;2023-07-24T05:37:08;18.00;99.90
42019;DHT22;27703;51.980;5.848;2023-07-24T05:39:34;18.00;99.90
42019;DHT22;27703;51.980;5.848;2023-07-24T05:41:59;18.00;99.90
42019;DHT22;27703;51.980;5.848;2023-07-24T05:44:25;18.10;99.90
42019;DHT22;27703;51.980;5.848;2023-07-24T05:46:50;18.00;99.90
42019;DHT22;27703;51.980;5.848;2023-07-24T05:49:16;18.10;99.90
42019;DHT22;27703;51.980;5.848;2023-07-24T05:51:42;18.00;99.90
42019;DHT22;27703;51.980;5.848;2023-07-24T05:54:07;18.00;99.90
42019;DHT22;27703;51.980;5.848;2023-07-24T05:56:33;18.00;99.90
42019;DHT22;27703;51.980;5.848;2023-07-24T05:58:58;18.00;99.90
42019;DHT22;27703;51.980;5.848;2023-07-24T06:01:24;18.00;99.90
42019;DHT22;27703;51.980;5.848;2023-07-24T06:03:49;18.00;99.90
42019;DHT22;27703;51.980;5.848;2023-07-24T06:06:15;18.00;99.90
42019;DHT22;27703;51.980;5.848;2023-07-24T06:08:40;17.90;99.90
42019;DHT22;27703;51.980;5.848;2023-07-24T06:11:06;18.00;99.90
42019;DHT22;27703;51.980;5.848;2023-07-24T06:13:32;17.90;99.90
42019;DHT22;27703;51.980;5.848;2023-07-24T06:15:57;17.90;99.90
42019;DHT22;27703;51.980;5.848;2023-07-24T06:18:23;17.90;99.90
42019;DHT22;27703;51.980;5.848;2023-07-24T06:20:53;17.90;99.90
42019;DHT22;27703;51.980;5.848;2023-07-24T06:23:18;17.90;99.90
42019;DHT22;27703;51.980;5.848;2023-07-24T06:25:44;17.90;99.90
42019;DHT22;27703;51.980;5.848;2023-07-24T06:28:10;17.90;99.90
42019;DHT22;27703;51.980;5.848;2023-07-24T06:30:35;17.90;99.90
42019;DHT22;27703;51.980;5.848;2023-07-24T06:33:01;17.90;99.90
42019;DHT22;27703;51.980;5.848;2023-07-24T06:35:26;18.00;99.90
42019;DHT22;27703;51.980;5.848;2023-07-24T06:37:52;18.00;99.90
42019;DHT22;27703;51.980;5.848;2023-07-24T06:40:17;18.00;99.90
42019;DHT22;27703;51.980;5.848;2023-07-24T06:42:43;18.00;99.90
42019;DHT22;27703;51.980;5.848;2023-07-24T06:45:09;18.10;99.90
42019;DHT22;27703;51.980;5.848;2023-07-24T06:47:35;18.10;99.90
42019;DHT22;27703;51.980;5.848;2023-07-24T06:50:00;18.10;99.90
42019;DHT22;27703;51.980;5.848;2023-07-24T06:52:27;18.10;99.90
42019;DHT22;27703;51.980;5.848;2023-07-24T06:54:53;18.10;99.90
42019;DHT22;27703;51.980;5.848;2023-07-24T06:57:18;18.00;99.90
42019;DHT22;27703;51.980;5.848;2023-07-24T06:59:44;18.00;99.90
42019;DHT22;27703;51.980;5.848;2023-07-24T07:02:09;18.00;99.90
42019;DHT22;27703;51.980;5.848;2023-07-24T07:04:35;18.10;99.90
42019;DHT22;27703;51.980;5.848;2023-07-24T07:07:00;18.10;99.90
42019;DHT22;27703;51.980;5.848;2023-07-24T07:09:26;18.10;99.90
42019;DHT22;27703;51.980;5.848;2023-07-24T07:11:52;18.20;99.90
42019;DHT22;27703;51.980;5.848;2023-07-24T07:14:17;18.30;99.90
42019;DHT22;27703;51.980;5.848;2023-07-24T07:16:43;18.40;99.90
42019;DHT22;27703;51.980;5.848;2023-07-24T07:19:09;18.50;99.90
42019;DHT22;27703;51.980;5.848;2023-07-24T07:21:35;18.50;99.90
42019;DHT22;27703;51.980;5.848;2023-07-24T07:24:00;18.50;99.90
42019;DHT22;27703;51.980;5.848;2023-07-24T07:26:26;18.50;99.90
42019;DHT22;27703;51.980;5.848;2023-07-24T07:28:52;18.50;99.90
42019;DHT22;27703;51.980;5.848;2023-07-24T07:31:17;18.60;99.90
42019;DHT22;27703;51.980;5.848;2023-07-24T07:33:43;18.60;99.90
42019;DHT22;27703;51.980;5.848;2023-07-24T07:36:08;18.60;99.90
42019;DHT22;27703;51.980;5.848;2023-07-24T07:38:34;18.60;99.90
42019;DHT22;27703;51.980;5.848;2023-07-24T07:41:04;18.60;99.90
42019;DHT22;27703;51.980;5.848;2023-07-24T07:43:30;18.60;99.90
42019;DHT22;27703;51.980;5.848;2023-07-24T07:45:56;18.50;99.90
42019;DHT22;27703;51.980;5.848;2023-07-24T07:48:22;18.60;99.90
42019;DHT22;27703;51.980;5.848;2023-07-24T07:50:51;18.60;99.90
42019;DHT22;27703;51.980;5.848;2023-07-24T07:53:17;18.70;99.90
42019;DHT22;27703;51.980;5.848;2023-07-24T07:55:42;18.70;99.90
42019;DHT22;27703;51.980;5.848;2023-07-24T07:58:08;18.90;99.90
42019;DHT22;27703;51.980;5.848;2023-07-24T08:00:34;19.00;99.90
42019;DHT22;27703;51.980;5.848;2023-07-24T08:03:00;19.00;99.90
42019;DHT22;27703;51.980;5.848;2023-07-24T08:05:25;18.90;99.90
42019;DHT22;27703;51.980;5.848;2023-07-24T08:07:51;18.80;99.90
42019;DHT22;27703;51.980;5.848;2023-07-24T08:10:16;18.60;99.90
42019;DHT22;27703;51.980;5.848;2023-07-24T08:12:42;18.40;99.90
42019;DHT22;27703;51.980;5.848;2023-07-24T08:15:08;18.30;99.90
42019;DHT22;27703;51.980;5.848;2023-07-24T08:17:34;18.20;99.90
42019;DHT22;27703;51.980;5.848;2023-07-24T08:20:00;18.20;99.90
42019;DHT22;27703;51.980;5.848;2023-07-24T08:22:25;18.20;99.90
42019;DHT22;27703;51.980;5.848;2023-07-24T08:24:51;18.40;99.90
42019;DHT22;27703;51.980;5.848;2023-07-24T08:27:17;18.70;99.90
42019;DHT22;27703;51.980;5.848;2023-07-24T08:29:42;18.80;99.90
42019;DHT22;27703;51.980;5.848;2023-07-24T08:32:08;19.00;99.90
42019;DHT22;27703;51.980;5.848;2023-07-24T08:34:34;19.30;99.90
42019;DHT22;27703;51.980;5.848;2023-07-24T08:36:59;19.40;99.90
42019;DHT22;27703;51.980;5.848;2023-07-24T08:39:25;19.30;99.90
42019;DHT22;27703;51.980;5.848;2023-07-24T08:41:51;19.30;99.90
42019;DHT22;27703;51.980;5.848;2023-07-24T08:44:16;19.20;99.90
42019;DHT22;27703;51.980;5.848;2023-07-24T08:46:43;19.10;99.90
42019;DHT22;27703;51.980;5.848;2023-07-24T08:49:12;19.20;99.90
42019;DHT22;27703;51.980;5.848;2023-07-24T08:51:42;19.40;99.90
42019;DHT22;27703;51.980;5.848;2023-07-24T08:54:09;19.60;99.90
42019;DHT22;27703;51.980;5.848;2023-07-24T08:56:36;19.70;99.90
42019;DHT22;27703;51.980;5.848;2023-07-24T08:59:02;19.80;99.90
42019;DHT22;27703;51.980;5.848;2023-07-24T09:01:28;19.80;99.90
42019;DHT22;27703;51.980;5.848;2023-07-24T09:03:54;19.70;99.90
42019;DHT22;27703;51.980;5.848;2023-07-24T09:06:19;19.80;99.90
42019;DHT22;27703;51.980;5.848;2023-07-24T09:08:45;19.80;99.90
42019;DHT22;27703;51.980;5.848;2023-07-24T09:11:13;19.90;99.90
42019;DHT22;27703;51.980;5.848;2023-07-24T09:13:41;19.90;99.90
42019;DHT22;27703;51.980;5.848;2023-07-24T09:16:08;19.90;99.90
42019;DHT22;27703;51.980;5.848;2023-07-24T09:18:40;19.90;99.90
42019;DHT22;27703;51.980;5.848;2023-07-24T09:21:06;20.00;99.90
42019;DHT22;27703;51.980;5.848;2023-07-24T09:23:32;20.00;99.90
42019;DHT22;27703;51.980;5.848;2023-07-24T09:25:58;20.10;99.90
42019;DHT22;27703;51.980;5.848;2023-07-24T09:28:24;20.30;99.90
42019;DHT22;27703;51.980;5.848;2023-07-24T09:30:57;20.50;99.90
42019;DHT22;27703;51.980;5.848;2023-07-24T09:33:43;20.60;99.90
42019;DHT22;27703;51.980;5.848;2023-07-24T09:36:10;20.70;99.90
42019;DHT22;27703;51.980;5.848;2023-07-24T09:38:39;20.70;99.90
42019;DHT22;27703;51.980;5.848;2023-07-24T09:41:06;20.70;99.90
42019;DHT22;27703;51.980;5.848;2023-07-24T09:43:32;20.70;99.90
42019;DHT22;27703;51.980;5.848;2023-07-24T09:45:58;20.60;99.90
42019;DHT22;27703;51.980;5.848;2023-07-24T09:48:26;20.50;99.90
42019;DHT22;27703;51.980;5.848;2023-07-24T09:50:56;20.40;99.90
42019;DHT22;27703;51.980;5.848;2023-07-24T09:55:58;20.20;99.90
42019;DHT22;27703;51.980;5.848;2023-07-24T09:58:25;20.10;99.90
42019;DHT22;27703;51.980;5.848;2023-07-24T10:00:52;20.10;99.90
42019;DHT22;27703;51.980;5.848;2023-07-24T10:03:17;20.00;99.90
42019;DHT22;27703;51.980;5.848;2023-07-24T10:05:45;20.00;99.90
42019;DHT22;27703;51.980;5.848;2023-07-24T10:08:12;20.00;99.90
42019;DHT22;27703;51.980;5.848;2023-07-24T10:10:38;20.00;99.90
42019;DHT22;27703;51.980;5.848;2023-07-24T10:13:05;19.90;99.90
42019;DHT22;27703;51.980;5.848;2023-07-24T10:15:31;19.80;99.90
42019;DHT22;27703;51.980;5.848;2023-07-24T10:18:05;19.70;99.90
42019;DHT22;27703;51.980;5.848;2023-07-24T10:20:35;19.70;99.90
42019;DHT22;27703;51.980;5.848;2023-07-24T10:23:19;19.70;99.90
42019;DHT22;27703;51.980;5.848;2023-07-24T10:25:45;19.80;99.90
42019;DHT22;27703;51.980;5.848;2023-07-24T10:28:12;19.80;99.90
42019;DHT22;27703;51.980;5.848;2023-07-24T10:30:38;19.90;99.90
42019;DHT22;27703;51.980;5.848;2023-07-24T10:33:18;19.90;99.90
42019;DHT22;27703;51.980;5.848;2023-07-24T10:35:46;19.80;99.90
42019;DHT22;27703;51.980;5.848;2023-07-24T10:38:16;19.80;99.90
42019;DHT22;27703;51.980;5.848;2023-07-24T10:40:42;19.80;99.90
42019;DHT22;27703;51.980;5.848;2023-07-24T10:43:13;19.90;99.90
42019;DHT22;27703;51.980;5.848;2023-07-24T10:48:12;19.90;99.90
42019;DHT22;27703;51.980;5.848;2023-07-24T10:50:39;19.80;99.90
42019;DHT22;27703;51.980;5.848;2023-07-24T10:53:05;19.80;99.90
42019;DHT22;27703;51.980;5.848;2023-07-24T10:55:30;19.80;99.90
42019;DHT22;27703;51.980;5.848;2023-07-24T10:57:56;19.90;99.90
42019;DHT22;27703;51.980;5.848;2023-07-24T11:00:22;19.90;99.90
42019;DHT22;27703;51.980;5.848;2023-07-24T11:02:47;19.90;99.90
42019;DHT22;27703;51.980;5.848;2023-07-24T11:05:14;19.90;99.90
42019;DHT22;27703;51.980;5.848;2023-07-24T11:07:40;19.90;99.90
42019;DHT22;27703;51.980;5.848;2023-07-24T11:10:19;19.90;99.90
42019;DHT22;27703;51.980;5.848;2023-07-24T11:12:45;19.90;99.90
42019;DHT22;27703;51.980;5.848;2023-07-24T11:15:12;19.90;99.90
42019;DHT22;27703;51.980;5.848;2023-07-24T11:17:39;20.00;99.90
42019;DHT22;27703;51.980;5.848;2023-07-24T11:20:16;20.00;99.90
42019;DHT22;27703;51.980;5.848;2023-07-24T11:22:43;20.20;99.90
42019;DHT22;27703;51.980;5.848;2023-07-24T11:25:12;20.20;99.90
42019;DHT22;27703;51.980;5.848;2023-07-24T11:27:42;20.20;99.90
42019;DHT22;27703;51.980;5.848;2023-07-24T11:30:12;20.20;99.90
42019;DHT22;27703;51.980;5.848;2023-07-24T11:32:39;20.10;99.90
42019;DHT22;27703;51.980;5.848;2023-07-24T11:35:05;20.10;99.90
42019;DHT22;27703;51.980;5.848;2023-07-24T11:37:32;20.10;99.90
42019;DHT22;27703;51.980;5.848;2023-07-24T11:39:59;20.00;99.90
42019;DHT22;27703;51.980;5.848;2023-07-24T11:42:30;20.00;99.90
42019;DHT22;27703;51.980;5.848;2023-07-24T11:44:56;19.90;99.90
42019;DHT22;27703;51.980;5.848;2023-07-24T11:47:25;20.00;99.90
42019;DHT22;27703;51.980;5.848;2023-07-24T11:50:01;19.90;99.90
42019;DHT22;27703;51.980;5.848;2023-07-24T11:52:40;20.00;99.90
42019;DHT22;27703;51.980;5.848;2023-07-24T11:55:09;20.20;99.90
42019;DHT22;27703;51.980;5.848;2023-07-24T11:57:34;20.40;99.90
42019;DHT22;27703;51.980;5.848;2023-07-24T12:00:00;20.40;99.90
42019;DHT22;27703;51.980;5.848;2023-07-24T12:02:26;20.40;99.90
42019;DHT22;27703;51.980;5.848;2023-07-24T12:04:57;20.50;99.90
42019;DHT22;27703;51.980;5.848;2023-07-24T12:07:34;20.60;99.90
42019;DHT22;27703;51.980;5.848;2023-07-24T12:10:04;20.80;99.90
42019;DHT22;27703;51.980;5.848;2023-07-24T12:15:04;21.50;99.90
42019;DHT22;27703;51.980;5.848;2023-07-24T12:17:29;21.80;99.90
42019;DHT22;27703;51.980;5.848;2023-07-24T12:19:55;22.00;99.90
42019;DHT22;27703;51.980;5.848;2023-07-24T12:22:21;22.10;99.90
42019;DHT22;27703;51.980;5.848;2023-07-24T12:24:47;22.00;99.90
42019;DHT22;27703;51.980;5.848;2023-07-24T12:27:13;21.80;99.90
42019;DHT22;27703;51.980;5.848;2023-07-24T12:29:38;21.60;99.90
42019;DHT22;27703;51.980;5.848;2023-07-24T12:32:04;21.40;99.90
42019;DHT22;27703;51.980;5.848;2023-07-24T12:34:30;21.40;99.90
42019;DHT22;27703;51.980;5.848;2023-07-24T12:36:55;21.30;99.90
42019;DHT22;27703;51.980;5.848;2023-07-24T12:39:21;21.20;99.90
42019;DHT22;27703;51.980;5.848;2023-07-24T12:41:47;21.00;99.90
42019;DHT22;27703;51.980;5.848;2023-07-24T12:44:12;20.90;99.90
42019;DHT22;27703;51.980;5.848;2023-07-24T12:46:38;21.00;99.90
42019;DHT22;27703;51.980;5.848;2023-07-24T12:49:03;21.00;99.90
42019;DHT22;27703;51.980;5.848;2023-07-24T12:51:29;21.00;99.90
42019;DHT22;27703;51.980;5.848;2023-07-24T12:53:54;21.00;99.90
42019;DHT22;27703;51.980;5.848;2023-07-24T12:56:20;21.00;99.90
42019;DHT22;27703;51.980;5.848;2023-07-24T12:58:45;21.10;99.90
42019;DHT22;27703;51.980;5.848;2023-07-24T13:01:12;21.20;99.90
42019;DHT22;27703;51.980;5.848;2023-07-24T13:03:38;21.30;99.90
42019;DHT22;27703;51.980;5.848;2023-07-24T13:06:03;21.40;99.90
42019;DHT22;27703;51.980;5.848;2023-07-24T13:08:29;21.50;99.90
42019;DHT22;27703;51.980;5.848;2023-07-24T13:10:54;21.80;99.90
42019;DHT22;27703;51.980;5.848;2023-07-24T13:13:20;21.90;99.90
42019;DHT22;27703;51.980;5.848;2023-07-24T13:15:45;22.10;99.90
42019;DHT22;27703;51.980;5.848;2023-07-24T13:18:11;22.20;99.80
42019;DHT22;27703;51.980;5.848;2023-07-24T13:20:40;22.30;99.80
42019;DHT22;27703;51.980;5.848;2023-07-24T13:23:05;22.50;99.60
42019;DHT22;27703;51.980;5.848;2023-07-24T13:25:31;22.60;99.30
42019;DHT22;27703;51.980;5.848;2023-07-24T13:27:56;22.70;99.10
42019;DHT22;27703;51.980;5.848;2023-07-24T13:30:22;22.80;99.20
42019;DHT22;27703;51.980;5.848;2023-07-24T13:32:47;22.90;99.30
42019;DHT22;27703;51.980;5.848;2023-07-24T13:35:13;23.00;98.90
42019;DHT22;27703;51.980;5.848;2023-07-24T13:37:40;23.10;98.60
42019;DHT22;27703;51.980;5.848;2023-07-24T13:40:07;23.10;98.60
42019;DHT22;27703;51.980;5.848;2023-07-24T13:42:32;23.20;98.20
42019;DHT22;27703;51.980;5.848;2023-07-24T13:44:58;23.20;98.00
42019;DHT22;27703;51.980;5.848;2023-07-24T13:47:23;23.20;98.30
42019;DHT22;27703;51.980;5.848;2023-07-24T13:49:49;23.40;98.40
42019;DHT22;27703;51.980;5.848;2023-07-24T13:52:15;23.60;98.00
42019;DHT22;27703;51.980;5.848;2023-07-24T13:54:40;23.70;97.50
42019;DHT22;27703;51.980;5.848;2023-07-24T13:57:06;23.80;97.50
42019;DHT22;27703;51.980;5.848;2023-07-24T13:59:37;23.90;97.30
42019;DHT22;27703;51.980;5.848;2023-07-24T14:02:05;24.00;97.00
42019;DHT22;27703;51.980;5.848;2023-07-24T14:04:31;24.00;96.80
42019;DHT22;27703;51.980;5.848;2023-07-24T14:06:56;24.00;97.00
42019;DHT22;27703;51.980;5.848;2023-07-24T14:09:22;24.10;96.40
42019;DHT22;27703;51.980;5.848;2023-07-24T14:11:48;24.10;96.30
42019;DHT22;27703;51.980;5.848;2023-07-24T14:14:13;24.20;96.00
42019;DHT22;27703;51.980;5.848;2023-07-24T14:16:39;24.10;96.20
42019;DHT22;27703;51.980;5.848;2023-07-24T14:19:04;24.00;96.30
42019;DHT22;27703;51.980;5.848;2023-07-24T14:21:30;23.70;96.40
42019;DHT22;27703;51.980;5.848;2023-07-24T14:23:56;23.40;96.90
42019;DHT22;27703;51.980;5.848;2023-07-24T14:26:21;23.20;97.30
42019;DHT22;27703;51.980;5.848;2023-07-24T14:28:48;22.90;97.80
42019;DHT22;27703;51.980;5.848;2023-07-24T14:31:14;22.50;99.00
42019;DHT22;27703;51.980;5.848;2023-07-24T14:33:39;22.10;99.90
42019;DHT22;27703;51.980;5.848;2023-07-24T14:36:05;21.50;99.90
42019;DHT22;27703;51.980;5.848;2023-07-24T14:38:30;21.10;99.90
42019;DHT22;27703;51.980;5.848;2023-07-24T14:40:56;20.90;99.90
42019;DHT22;27703;51.980;5.848;2023-07-24T14:43:22;20.80;99.90
42019;DHT22;27703;51.980;5.848;2023-07-24T14:45:47;20.70;99.90
42019;DHT22;27703;51.980;5.848;2023-07-24T14:48:13;20.70;99.90
42019;DHT22;27703;51.980;5.848;2023-07-24T14:50:40;20.60;99.90
42019;DHT22;27703;51.980;5.848;2023-07-24T14:53:05;20.60;99.90
42019;DHT22;27703;51.980;5.848;2023-07-24T14:55:31;20.50;99.90
42019;DHT22;27703;51.980;5.848;2023-07-24T14:57:56;20.50;99.90
42019;DHT22;27703;51.980;5.848;2023-07-24T15:00:22;20.40;99.90
42019;DHT22;27703;51.980;5.848;2023-07-24T15:02:47;20.00;99.90
42019;DHT22;27703;51.980;5.848;2023-07-24T15:05:13;19.80;99.90
42019;DHT22;27703;51.980;5.848;2023-07-24T15:07:39;19.70;99.90
42019;DHT22;27703;51.980;5.848;2023-07-24T15:10:05;19.70;99.90
42019;DHT22;27703;51.980;5.848;2023-07-24T15:12:31;19.80;99.90
42019;DHT22;27703;51.980;5.848;2023-07-24T15:14:56;19.80;99.90
42019;DHT22;27703;51.980;5.848;2023-07-24T15:17:22;19.80;99.90
42019;DHT22;27703;51.980;5.848;2023-07-24T15:19:47;19.90;99.90
42019;DHT22;27703;51.980;5.848;2023-07-24T15:22:13;19.90;99.90
42019;DHT22;27703;51.980;5.848;2023-07-24T15:24:40;20.10;99.90
42019;DHT22;27703;51.980;5.848;2023-07-24T15:27:07;20.30;99.90
42019;DHT22;27703;51.980;5.848;2023-07-24T15:29:37;20.40;99.90
42019;DHT22;27703;51.980;5.848;2023-07-24T15:32:03;20.60;99.90